Time;durP1;ratioP1;P1;durP2;ratioP2;P2;SDS_P1;SDS_P2;PMS_P1;PMS_P2;Temp;Humidity;BMP_temperature;BMP_pressure;BME280_temperature;BME280_humidity;BME280_pressure;Samples;Min_cycle;Max_cycle;Signal;HPM_P1;HPM_P2
2021/07/29 00:02:20;;;;;;;;;;;27.10;98.30;;;;;;1919816;73;20155;-88
2021/07/29 00:04:50;;;;;;;;;;;27.10;98.40;;;;;;1852908;75;20170;-90
2021/07/29 00:07:20;;;;;;;;;;;27.20;98.40;;;;;;1854389;77;20115;-91
2021/07/29 00:09:51;;;;;;;;;;;27.20;98.40;;;;;;1898797;73;20169;-89
2021/07/29 00:12:21;;;;;;;;;;;27.10;98.30;;;;;;1915609;73;20170;-91
2021/07/29 00:14:51;;;;;;;;;;;27.10;98.40;;;;;;1925965;73;20209;-91
2021/07/29 00:17:30;;;;;;;;;;;27.20;98.40;;;;;;1931435;73;20198;-90
2021/07/29 00:20:05;;;;;;;;;;;27.20;98.30;;;;;;1836232;77;20218;-90
2021/07/29 00:22:31;;;;;;;;;;;27.20;98.40;;;;;;1849898;77;20202;-91
2021/07/29 00:25:06;;;;;;;;;;;27.20;98.30;;;;;;1844688;77;20163;-90
2021/07/29 00:27:39;;;;;;;;;;;27.30;98.30;;;;;;1829057;77;20213;-90
2021/07/29 00:30:06;;;;;;;;;;;27.30;98.20;;;;;;1839680;77;20151;-89
2021/07/29 00:32:36;;;;;;;;;;;27.30;98.10;;;;;;1832883;77;20223;-90
2021/07/29 00:38:33;;;;;;;;;;;27.40;98.20;;;;;;1753295;81;20300;-91
2021/07/29 00:41:08;;;;;;;;;;;27.50;98.10;;;;;;1861301;75;20135;-90
2021/07/29 00:43:38;;;;;;;;;;;27.50;98.00;;;;;;1842617;77;20209;-91
2021/07/29 00:46:11;;;;;;;;;;;27.50;98.10;;;;;;1872908;75;20202;-89
2021/07/29 00:48:41;;;;;;;;;;;27.50;98.00;;;;;;1865578;75;20134;-89
2021/07/29 00:51:11;;;;;;;;;;;27.50;98.00;;;;;;1860423;75;20168;-89
2021/07/29 00:53:40;;;;;;;;;;;27.50;98.00;;;;;;1869311;75;20149;-90
2021/07/29 00:56:25;;;;;;;;;;;;;;;;;;;;;
2021/07/29 00:58:53;;;;;;;;;;;27.50;97.90;;;;;;1897238;75;20147;-90
2021/07/29 01:01:23;;;;;;;;;;;27.50;97.90;;;;;;1880420;75;20222;-90
2021/07/29 01:03:54;;;;;;;;;;;27.50;98.00;;;;;;1849969;75;20191;-90
2021/07/29 01:06:24;;;;;;;;;;;27.50;98.00;;;;;;1878915;75;20193;-89
2021/07/29 01:08:55;;;;;;;;;;;27.50;98.00;;;;;;1862643;75;20200;-90
2021/07/29 01:11:29;;;;;;;;;;;27.50;98.10;;;;;;1860114;75;20454;-90
2021/07/29 01:14:01;;;;;;;;;;;27.60;98.20;;;;;;1832238;75;20270;-89
2021/07/29 01:16:31;;;;;;;;;;;27.60;98.00;;;;;;1857949;75;20522;-90
2021/07/29 01:19:01;;;;;;;;;;;27.60;97.90;;;;;;1863593;75;20232;-89
2021/07/29 01:21:32;;;;;;;;;;;27.60;98.00;;;;;;1864331;75;20255;-90
2021/07/29 01:24:02;;;;;;;;;;;27.60;97.90;;;;;;1877794;75;20159;-88
2021/07/29 01:26:31;;;;;;;;;;;27.70;98.00;;;;;;1859167;75;20202;-91
2021/07/29 01:29:01;;;;;;;;;;;27.70;97.80;;;;;;1889658;75;20228;-90
2021/07/29 01:31:31;;;;;;;;;;;27.80;97.60;;;;;;1866534;75;20191;-89
2021/07/29 01:34:02;;;;;;;;;;;27.80;97.50;;;;;;1853997;75;20188;-90
2021/07/29 01:36:32;;;;;;;;;;;27.80;97.50;;;;;;1867748;75;20257;-90
2021/07/29 01:39:02;;;;;;;;;;;27.90;97.40;;;;;;1870045;75;20131;-90
2021/07/29 01:41:31;;;;;;;;;;;27.90;97.20;;;;;;1874459;75;20174;-90
2021/07/29 01:44:01;;;;;;;;;;;28.00;97.20;;;;;;1860857;75;20159;-90
2021/07/29 01:46:31;;;;;;;;;;;28.00;97.40;;;;;;1871588;76;20175;-91
2021/07/29 01:49:01;;;;;;;;;;;28.10;97.20;;;;;;1853332;76;20224;-89
2021/07/29 01:51:30;;;;;;;;;;;28.20;97.10;;;;;;1842018;76;20211;-90
2021/07/29 01:54:00;;;;;;;;;;;28.30;97.10;;;;;;1849675;76;20548;-90
2021/07/29 01:56:30;;;;;;;;;;;28.30;96.60;;;;;;1846257;76;20237;-91
2021/07/29 01:59:06;;;;;;;;;;;28.40;96.70;;;;;;1854598;76;20132;-90
2021/07/29 02:01:32;;;;;;;;;;;28.40;96.50;;;;;;1831100;76;20228;-91
2021/07/29 02:04:02;;;;;;;;;;;28.40;96.20;;;;;;1856276;76;20514;-91
2021/07/29 02:06:31;;;;;;;;;;;28.50;96.30;;;;;;1855434;76;20189;-91
2021/07/29 02:09:01;;;;;;;;;;;28.50;96.20;;;;;;1856949;76;20184;-90
2021/07/29 02:11:34;;;;;;;;;;;28.50;95.90;;;;;;1850260;76;20287;-89
2021/07/29 02:14:02;;;;;;;;;;;28.50;95.70;;;;;;1849965;76;20190;-89
2021/07/29 02:16:33;;;;;;;;;;;28.50;96.00;;;;;;1833282;75;20480;-91
2021/07/29 02:28:16;;;;;;;;;;;28.90;95.40;;;;;;1816901;76;20243;-89
2021/07/29 02:30:48;;;;;;;;;;;29.10;95.00;;;;;;1934647;73;20160;-90
2021/07/29 02:33:18;;;;;;;;;;;29.30;94.60;;;;;;1937949;73;20330;-90
2021/07/29 02:35:49;;;;;;;;;;;29.40;94.70;;;;;;1926927;73;20212;-92
2021/07/29 02:38:21;;;;;;;;;;;29.60;94.00;;;;;;1932493;73;20128;-93
2021/07/29 02:40:50;;;;;;;;;;;29.60;93.60;;;;;;1928778;72;20406;-92
2021/07/29 02:43:20;;;;;;;;;;;29.70;93.90;;;;;;1933241;73;20152;-92
2021/07/29 02:45:50;;;;;;;;;;;29.80;94.00;;;;;;1925656;73;20123;-93
2021/07/29 02:48:20;;;;;;;;;;;29.90;93.70;;;;;;1941886;73;20125;-92
2021/07/29 02:50:52;;;;;;;;;;;30.10;92.60;;;;;;1921829;73;20375;-93
2021/07/29 02:53:25;;;;;;;;;;;30.20;92.20;;;;;;1941456;73;20208;-92
2021/07/29 02:55:57;;;;;;;;;;;30.20;91.70;;;;;;1966556;73;20163;-93
2021/07/29 02:58:25;;;;;;;;;;;30.20;91.50;;;;;;1926403;73;20431;-91
2021/07/29 03:00:55;;;;;;;;;;;30.20;92.10;;;;;;1937791;73;20229;-94
2021/07/29 03:03:29;;;;;;;;;;;30.20;91.70;;;;;;1936882;73;20203;-92
2021/07/29 03:06:01;;;;;;;;;;;30.20;91.70;;;;;;1937112;73;20125;-93
2021/07/29 03:08:30;;;;;;;;;;;30.30;91.40;;;;;;1949797;73;20205;-94
2021/07/29 03:11:03;;;;;;;;;;;30.30;91.60;;;;;;1951489;73;20166;-94
2021/07/29 03:13:31;;;;;;;;;;;30.30;91.60;;;;;;1952480;73;20244;-94
2021/07/29 03:16:02;;;;;;;;;;;30.40;91.40;;;;;;1948217;73;20160;-89
2021/07/29 03:18:50;;;;;;;;;;;30.60;91.50;;;;;;1947042;73;20114;-92
2021/07/29 03:21:23;;;;;;;;;;;30.70;91.30;;;;;;1938840;73;20134;-92
2021/07/29 03:23:53;;;;;;;;;;;30.80;91.00;;;;;;1949653;73;20169;-93
2021/07/29 03:26:34;;;;;;;;;;;30.90;90.40;;;;;;1921132;73;20497;-88
2021/07/29 03:29:06;;;;;;;;;;;31.00;90.20;;;;;;1915543;73;20255;-93
2021/07/29 03:31:40;;;;;;;;;;;31.00;90.10;;;;;;1930813;73;20473;-93
2021/07/29 03:34:10;;;;;;;;;;;31.00;90.00;;;;;;1966461;73;20167;-94
2021/07/29 03:36:39;;;;;;;;;;;31.00;90.20;;;;;;1957903;73;20240;-93
2021/07/29 03:39:09;;;;;;;;;;;31.10;90.80;;;;;;1958972;73;20163;-93
2021/07/29 03:41:40;;;;;;;;;;;31.10;90.80;;;;;;1943121;73;20137;-93
2021/07/29 03:44:10;;;;;;;;;;;31.20;90.90;;;;;;1928804;73;20204;-93
2021/07/29 03:46:39;;;;;;;;;;;31.30;90.90;;;;;;1960329;73;20147;-93
2021/07/29 03:49:09;;;;;;;;;;;31.40;90.60;;;;;;1949312;73;20232;-93
2021/07/29 03:51:38;;;;;;;;;;;31.50;90.60;;;;;;1939945;73;20168;-93
2021/07/29 03:54:12;;;;;;;;;;;31.50;90.10;;;;;;1945435;73;20174;-93
2021/07/29 03:56:44;;;;;;;;;;;31.60;90.20;;;;;;1932472;73;20209;-93
2021/07/29 03:59:14;;;;;;;;;;;31.80;89.90;;;;;;1934824;73;20199;-90
2021/07/29 04:01:44;;;;;;;;;;;31.70;90.10;;;;;;1929829;73;20247;-92
2021/07/29 04:04:22;;;;;;;;;;;31.70;89.20;;;;;;1931313;73;20220;-94
2021/07/29 04:06:57;;;;;;;;;;;31.60;89.90;;;;;;1953385;73;20245;-92
2021/07/29 04:09:27;;;;;;;;;;;31.50;90.10;;;;;;1947727;73;20214;-89
2021/07/29 04:11:57;;;;;;;;;;;31.40;90.10;;;;;;1947501;73;20210;-88
2021/07/29 04:14:26;;;;;;;;;;;31.30;90.10;;;;;;1947085;73;20200;-87
2021/07/29 04:16:56;;;;;;;;;;;31.30;90.60;;;;;;1942287;73;20162;-88
2021/07/29 04:19:27;;;;;;;;;;;31.40;90.70;;;;;;1939763;73;20171;-88
2021/07/29 04:21:57;;;;;;;;;;;31.50;90.40;;;;;;1946457;73;20222;-91
2021/07/29 04:24:28;;;;;;;;;;;31.70;90.30;;;;;;1949078;73;20203;-91
2021/07/29 04:27:00;;;;;;;;;;;31.80;89.70;;;;;;1936889;73;20120;-91
2021/07/29 04:29:34;;;;;;;;;;;32.00;86.90;;;;;;1939399;73;20173;-91
2021/07/29 04:32:01;;;;;;;;;;;32.20;85.70;;;;;;1937184;73;20193;-90
2021/07/29 04:34:32;;;;;;;;;;;32.30;85.70;;;;;;1933212;73;20212;-89
2021/07/29 04:37:02;;;;;;;;;;;32.40;84.00;;;;;;1943493;73;20128;-91
2021/07/29 04:39:31;;;;;;;;;;;32.40;83.60;;;;;;1932819;73;20154;-91
2021/07/29 04:42:16;;;;;;;;;;;32.50;82.80;;;;;;1941783;73;20429;-92
2021/07/29 04:44:35;;;;;;;;;;;32.50;82.00;;;;;;1940994;73;20161;-90
2021/07/29 04:47:06;;;;;;;;;;;32.40;83.60;;;;;;1935805;73;20171;-91
2021/07/29 04:49:36;;;;;;;;;;;32.40;84.00;;;;;;1948039;73;20259;-89
2021/07/29 04:52:08;;;;;;;;;;;32.60;83.10;;;;;;1933903;73;20521;-88
2021/07/29 04:54:41;;;;;;;;;;;32.70;81.90;;;;;;1941423;72;20367;-93
2021/07/29 04:57:11;;;;;;;;;;;32.90;79.80;;;;;;1946341;73;20243;-91
2021/07/29 04:59:53;;;;;;;;;;;33.00;80.20;;;;;;1938869;73;20153;-91
2021/07/29 05:02:25;;;;;;;;;;;33.00;79.80;;;;;;1867017;75;20728;-91
2021/07/29 05:05:09;;;;;;;;;;;33.00;82.00;;;;;;1931576;73;20225;-92
2021/07/29 05:07:46;;;;;;;;;;;33.00;82.10;;;;;;1869377;76;20388;-92
2021/07/29 05:10:16;;;;;;;;;;;33.00;81.40;;;;;;1926176;73;20171;-92
2021/07/29 05:12:47;;;;;;;;;;;32.90;80.60;;;;;;1925809;73;20172;-90
2021/07/29 05:15:27;;;;;;;;;;;;;;;;;;;;;
2021/07/29 05:17:56;;;;;;;;;;;32.90;82.30;;;;;;1840841;76;20170;-90
2021/07/29 05:20:34;;;;;;;;;;;32.90;82.50;;;;;;1830586;77;20194;-87
2021/07/29 05:23:02;;;;;;;;;;;33.00;82.80;;;;;;1846232;76;20233;-91
2021/07/29 05:25:33;;;;;;;;;;;33.10;82.10;;;;;;1847631;76;20154;-90
2021/07/29 05:28:03;;;;;;;;;;;33.20;83.00;;;;;;1811965;77;20183;-91
2021/07/29 05:30:33;;;;;;;;;;;33.20;82.40;;;;;;1821014;79;20218;-88
2021/07/29 05:33:05;;;;;;;;;;;33.40;78.70;;;;;;1787331;78;20155;-91
2021/07/29 05:35:35;;;;;;;;;;;33.40;78.50;;;;;;1826363;78;20305;-90
2021/07/29 05:38:10;;;;;;;;;;;33.40;80.00;;;;;;1895820;74;20134;-92
2021/07/29 05:40:49;;;;;;;;;;;33.30;80.30;;;;;;1910764;74;20480;-90
2021/07/29 05:43:20;;;;;;;;;;;33.20;80.50;;;;;;1875157;74;20212;-89
2021/07/29 05:45:54;;;;;;;;;;;33.10;80.50;;;;;;1905317;75;20473;-88
2021/07/29 05:48:25;;;;;;;;;;;33.00;80.30;;;;;;1905129;75;20181;-91
2021/07/29 05:50:56;;;;;;;;;;;32.90;80.30;;;;;;1865324;75;20512;-90
2021/07/29 05:53:29;;;;;;;;;;;32.90;80.90;;;;;;1888424;75;20179;-91
2021/07/29 05:56:01;;;;;;;;;;;33.10;80.50;;;;;;1886379;74;20192;-93
2021/07/29 05:58:36;;;;;;;;;;;33.20;78.70;;;;;;1884543;75;20215;-89
2021/07/29 06:01:10;;;;;;;;;;;33.30;80.20;;;;;;1887250;75;20211;-92
2021/07/29 06:03:42;;;;;;;;;;;33.40;77.00;;;;;;1886661;75;20194;-92
2021/07/29 06:06:12;;;;;;;;;;;33.50;74.50;;;;;;1895616;75;20207;-92
2021/07/29 06:08:45;;;;;;;;;;;33.70;73.90;;;;;;1890133;75;20407;-92
2021/07/29 06:11:19;;;;;;;;;;;33.80;73.10;;;;;;1891404;75;20120;-93
2021/07/29 06:13:52;;;;;;;;;;;33.90;72.90;;;;;;1865646;75;20218;-91
2021/07/29 06:16:22;;;;;;;;;;;33.90;71.30;;;;;;1895075;74;20164;-93
2021/07/29 06:19:06;;;;;;;;;;;34.00;71.90;;;;;;1890162;74;20486;-93
2021/07/29 06:21:26;;;;;;;;;;;34.00;72.60;;;;;;1890110;74;20565;-89
2021/07/29 06:24:00;;;;;;;;;;;34.10;72.00;;;;;;1888037;75;20198;-91
2021/07/29 06:26:35;;;;;;;;;;;34.20;71.80;;;;;;1891744;74;20209;-89
2021/07/29 06:29:06;;;;;;;;;;;34.30;70.70;;;;;;1892939;74;20640;-89
2021/07/29 06:31:41;;;;;;;;;;;34.20;71.20;;;;;;1892634;75;20224;-91
2021/07/29 06:34:20;;;;;;;;;;;34.20;71.10;;;;;;1894659;74;20089;-89
2021/07/29 06:36:49;;;;;;;;;;;34.30;71.10;;;;;;1894716;74;20176;-90
2021/07/29 06:39:24;;;;;;;;;;;34.20;71.40;;;;;;1891673;74;20156;-92
2021/07/29 06:41:54;;;;;;;;;;;34.20;71.90;;;;;;1891886;74;20160;-91
2021/07/29 06:44:26;;;;;;;;;;;34.10;73.80;;;;;;1893744;75;20196;-91
2021/07/29 06:46:56;;;;;;;;;;;34.10;75.30;;;;;;1909024;74;20145;-91
2021/07/29 06:49:30;;;;;;;;;;;34.00;76.70;;;;;;1902706;74;20230;-91
2021/07/29 06:52:00;;;;;;;;;;;33.90;75.80;;;;;;1887962;74;20164;-92
2021/07/29 06:54:31;;;;;;;;;;;33.70;76.40;;;;;;1899020;74;20139;-91
2021/07/29 06:57:05;;;;;;;;;;;33.50;74.50;;;;;;1894829;74;20380;-93
2021/07/29 06:59:37;;;;;;;;;;;33.40;75.80;;;;;;1891542;74;20156;-89
2021/07/29 07:02:10;;;;;;;;;;;33.50;75.30;;;;;;1898319;74;20132;-90
2021/07/29 07:04:42;;;;;;;;;;;33.50;75.70;;;;;;1901140;74;20266;-90
2021/07/29 07:07:14;;;;;;;;;;;33.50;76.00;;;;;;1893566;74;20159;-91
2021/07/29 07:09:45;;;;;;;;;;;33.40;74.30;;;;;;1901183;74;20172;-92
2021/07/29 07:12:15;;;;;;;;;;;33.40;73.80;;;;;;1892214;74;20450;-93
2021/07/29 07:14:47;;;;;;;;;;;33.40;74.70;;;;;;1901299;74;20160;-90
2021/07/29 07:17:16;;;;;;;;;;;33.60;74.10;;;;;;1898617;74;20231;-90
2021/07/29 07:19:47;;;;;;;;;;;33.70;75.20;;;;;;1895419;74;20151;-92
2021/07/29 07:22:18;;;;;;;;;;;33.80;74.90;;;;;;1896125;74;20326;-92
2021/07/29 07:24:48;;;;;;;;;;;33.90;73.10;;;;;;1899447;74;20484;-91
2021/07/29 07:27:18;;;;;;;;;;;34.00;74.70;;;;;;1902923;74;20202;-92
2021/07/29 07:29:50;;;;;;;;;;;34.00;73.60;;;;;;1898075;74;20160;-91
2021/07/29 07:32:24;;;;;;;;;;;34.00;73.90;;;;;;1887443;75;20195;-91
2021/07/29 07:34:58;;;;;;;;;;;33.90;73.90;;;;;;1895024;74;20167;-91
2021/07/29 07:37:29;;;;;;;;;;;33.80;79.00;;;;;;1896005;74;20195;-91
2021/07/29 07:40:03;;;;;;;;;;;33.70;80.90;;;;;;1864324;74;20171;-92
2021/07/29 07:42:32;;;;;;;;;;;33.60;82.50;;;;;;1865921;74;20231;-91
2021/07/29 07:45:02;;;;;;;;;;;33.60;79.60;;;;;;1896780;74;20239;-91
2021/07/29 07:47:35;;;;;;;;;;;33.50;80.60;;;;;;1897588;74;20223;-88
2021/07/29 07:50:08;;;;;;;;;;;33.30;81.10;;;;;;1890894;74;20156;-92
2021/07/29 07:52:53;;;;;;;;;;;33.20;82.20;;;;;;1917195;74;20209;-92
2021/07/29 07:55:22;;;;;;;;;;;33.10;82.10;;;;;;1921764;75;20122;-91
2021/07/29 07:57:53;;;;;;;;;;;33.00;81.60;;;;;;1895683;75;20491;-79
2021/07/29 08:00:23;;;;;;;;;;;33.00;82.30;;;;;;1906110;74;20208;-77
2021/07/29 08:02:52;;;;;;;;;;;33.00;83.10;;;;;;1893581;74;20166;-78
2021/07/29 08:05:22;;;;;;;;;;;32.90;83.30;;;;;;1894305;74;20160;-79
2021/07/29 08:07:57;;;;;;;;;;;32.80;83.50;;;;;;1895708;75;20169;-78
2021/07/29 08:10:32;;;;;;;;;;;32.80;84.10;;;;;;1903936;75;20227;-77
2021/07/29 08:13:05;;;;;;;;;;;32.80;84.70;;;;;;1890360;75;20183;-78
2021/07/29 08:15:35;;;;;;;;;;;32.80;84.40;;;;;;1874581;74;20163;-78
2021/07/29 08:18:05;;;;;;;;;;;32.80;84.40;;;;;;1889207;74;20269;-78
2021/07/29 08:20:34;;;;;;;;;;;32.80;84.40;;;;;;1888400;75;20340;-79
2021/07/29 08:23:04;;;;;;;;;;;32.70;84.70;;;;;;1897409;75;20137;-78
2021/07/29 08:25:35;;;;;;;;;;;32.70;84.70;;;;;;1889416;75;20122;-78
2021/07/29 08:28:13;;;;;;;;;;;32.70;85.00;;;;;;1871272;75;20165;-78
2021/07/29 08:30:42;;;;;;;;;;;32.80;83.70;;;;;;1885681;76;20168;-78
2021/07/29 08:33:12;;;;;;;;;;;32.80;80.00;;;;;;1859689;76;20135;-77
2021/07/29 08:35:43;;;;;;;;;;;32.90;79.50;;;;;;1891689;75;20167;-78
2021/07/29 08:38:14;;;;;;;;;;;33.10;81.70;;;;;;1882335;75;20232;-78
2021/07/29 08:40:43;;;;;;;;;;;33.20;81.50;;;;;;1888307;75;20443;-78
2021/07/29 08:43:15;;;;;;;;;;;33.30;81.10;;;;;;1878530;75;20266;-78
2021/07/29 08:45:50;;;;;;;;;;;33.30;81.10;;;;;;1884843;75;20187;-79
2021/07/29 08:48:24;;;;;;;;;;;33.40;81.30;;;;;;1888223;75;20293;-78
2021/07/29 08:50:52;;;;;;;;;;;33.30;81.80;;;;;;1887820;75;20176;-79
2021/07/29 08:53:23;;;;;;;;;;;33.30;79.40;;;;;;1823144;76;20137;-80
2021/07/29 08:55:54;;;;;;;;;;;33.30;78.70;;;;;;1806606;78;20142;-80
2021/07/29 08:58:26;;;;;;;;;;;33.30;78.50;;;;;;1829401;78;20211;-79
2021/07/29 09:00:59;;;;;;;;;;;33.30;78.60;;;;;;1805536;78;20226;-80
2021/07/29 09:03:29;;;;;;;;;;;33.30;79.30;;;;;;1860229;76;20209;-80
2021/07/29 09:06:05;;;;;;;;;;;33.40;78.40;;;;;;1851836;76;20204;-79
2021/07/29 09:08:35;;;;;;;;;;;33.40;77.60;;;;;;1847302;76;20230;-79
2021/07/29 09:11:07;;;;;;;;;;;33.40;76.00;;;;;;1858980;76;20257;-77
2021/07/29 09:13:39;;;;;;;;;;;33.30;77.20;;;;;;1858232;77;20168;-79
2021/07/29 09:16:09;;;;;;;;;;;33.30;77.90;;;;;;1849928;76;20166;-79
2021/07/29 09:18:39;;;;;;;;;;;33.30;77.70;;;;;;1852795;76;20478;-79
2021/07/29 09:21:10;;;;;;;;;;;33.30;76.50;;;;;;1860074;76;20256;-78
2021/07/29 09:23:41;;;;;;;;;;;33.30;77.10;;;;;;1863252;77;20268;-78
2021/07/29 09:26:10;;;;;;;;;;;33.30;76.10;;;;;;1812292;78;20256;-78
2021/07/29 09:28:43;;;;;;;;;;;33.40;74.30;;;;;;1819939;77;20479;-79
2021/07/29 09:31:13;;;;;;;;;;;33.40;74.30;;;;;;1817716;77;20172;-77
2021/07/29 09:33:44;;;;;;;;;;;33.30;78.40;;;;;;1824049;77;20214;-78
2021/07/29 09:36:14;;;;;;;;;;;33.30;79.90;;;;;;1857246;76;20468;-78
2021/07/29 09:38:43;;;;;;;;;;;33.10;80.30;;;;;;1875910;76;20176;-79
2021/07/29 09:41:15;;;;;;;;;;;33.10;80.50;;;;;;1880513;76;20128;-79
2021/07/29 09:43:45;;;;;;;;;;;33.00;81.60;;;;;;1887910;75;20147;-79
2021/07/29 09:46:16;;;;;;;;;;;32.90;81.80;;;;;;1894767;75;20163;-79
2021/07/29 09:48:46;;;;;;;;;;;32.80;82.40;;;;;;1892349;75;20201;-78
2021/07/29 09:51:16;;;;;;;;;;;32.80;82.80;;;;;;1909154;74;20220;-78
2021/07/29 09:53:45;;;;;;;;;;;32.70;82.40;;;;;;1892927;74;20523;-78
2021/07/29 09:56:15;;;;;;;;;;;32.70;82.70;;;;;;1896278;74;20212;-78
2021/07/29 09:58:46;;;;;;;;;;;32.60;82.90;;;;;;1868820;76;20220;-78
2021/07/29 10:01:16;;;;;;;;;;;32.50;83.50;;;;;;1888068;75;20232;-78
2021/07/29 10:03:47;;;;;;;;;;;32.50;83.70;;;;;;1887493;75;20171;-79
2021/07/29 10:06:19;;;;;;;;;;;32.50;83.50;;;;;;1886717;75;20423;-78
2021/07/29 10:08:50;;;;;;;;;;;32.50;83.20;;;;;;1882492;75;20387;-78
2021/07/29 10:11:21;;;;;;;;;;;32.40;83.10;;;;;;1855470;76;20131;-79
2021/07/29 10:13:51;;;;;;;;;;;32.40;83.80;;;;;;1859459;76;20220;-78
2021/07/29 10:16:22;;;;;;;;;;;32.40;84.80;;;;;;1850695;76;20274;-79
2021/07/29 10:18:56;;;;;;;;;;;32.40;84.80;;;;;;1826123;76;20448;-78
2021/07/29 10:21:26;;;;;;;;;;;32.40;85.00;;;;;;1825250;77;20404;-78
2021/07/29 10:23:58;;;;;;;;;;;32.40;85.30;;;;;;1817524;77;20180;-80
2021/07/29 10:26:28;;;;;;;;;;;32.40;84.70;;;;;;1813952;77;20208;-79
2021/07/29 10:28:59;;;;;;;;;;;32.40;85.40;;;;;;1793775;78;20229;-78
2021/07/29 10:31:30;;;;;;;;;;;32.40;85.70;;;;;;1805956;77;20175;-80
2021/07/29 10:34:01;;;;;;;;;;;32.30;85.50;;;;;;1814056;77;20180;-81
2021/07/29 10:36:32;;;;;;;;;;;32.30;85.50;;;;;;1813811;77;20200;-79
2021/07/29 10:39:02;;;;;;;;;;;32.20;85.80;;;;;;1807763;77;20262;-80
2021/07/29 10:41:33;;;;;;;;;;;32.20;85.20;;;;;;1815797;77;20180;-79
2021/07/29 10:44:04;;;;;;;;;;;32.20;85.10;;;;;;1816135;77;20190;-80
2021/07/29 10:46:35;;;;;;;;;;;32.00;84.60;;;;;;1815348;77;20152;-79
2021/07/29 10:49:14;;;;;;;;;;;32.00;84.50;;;;;;1825941;77;20189;-79
2021/07/29 10:51:35;;;;;;;;;;;31.80;84.60;;;;;;1820256;77;20646;-78
2021/07/29 10:54:05;;;;;;;;;;;31.80;84.80;;;;;;1786829;79;20512;-78
2021/07/29 10:56:35;;;;;;;;;;;31.70;84.80;;;;;;1813220;77;20200;-80
2021/07/29 10:59:05;;;;;;;;;;;31.60;85.10;;;;;;1824493;77;20265;-80
2021/07/29 11:01:36;;;;;;;;;;;31.60;85.60;;;;;;1817597;77;20232;-77
2021/07/29 11:04:05;;;;;;;;;;;31.60;85.30;;;;;;1823594;77;20534;-78
2021/07/29 11:06:38;;;;;;;;;;;31.50;85.60;;;;;;1814933;77;20168;-79
2021/07/29 11:09:07;;;;;;;;;;;31.40;85.90;;;;;;1818050;77;20141;-78
2021/07/29 11:11:38;;;;;;;;;;;31.30;85.80;;;;;;1814443;77;20562;-78
2021/07/29 11:14:08;;;;;;;;;;;31.30;85.80;;;;;;1816208;77;20251;-78
2021/07/29 11:16:39;;;;;;;;;;;31.30;85.80;;;;;;1816512;77;20190;-78
2021/07/29 11:19:08;;;;;;;;;;;31.20;86.00;;;;;;1822953;77;20639;-79
2021/07/29 11:21:38;;;;;;;;;;;31.20;86.50;;;;;;1844594;76;20223;-78
2021/07/29 11:24:08;;;;;;;;;;;31.10;86.80;;;;;;1840506;76;20179;-79
2021/07/29 11:26:39;;;;;;;;;;;31.10;87.10;;;;;;1844035;76;20139;-80
2021/07/29 11:29:09;;;;;;;;;;;31.10;87.30;;;;;;1840742;76;20143;-79
2021/07/29 11:31:40;;;;;;;;;;;31.00;87.50;;;;;;1836726;77;20218;-79
2021/07/29 11:34:10;;;;;;;;;;;30.90;87.70;;;;;;1839872;76;20285;-79
2021/07/29 11:36:40;;;;;;;;;;;30.90;88.00;;;;;;1838934;76;20225;-78
2021/07/29 11:39:10;;;;;;;;;;;30.90;88.30;;;;;;1853118;76;20186;-78
2021/07/29 11:41:41;;;;;;;;;;;30.80;88.50;;;;;;1848549;76;20195;-79
2021/07/29 11:44:11;;;;;;;;;;;30.80;88.80;;;;;;1848637;76;20185;-78
2021/07/29 11:46:42;;;;;;;;;;;30.70;88.90;;;;;;1858954;76;20258;-78
2021/07/29 11:49:12;;;;;;;;;;;30.70;89.30;;;;;;1865057;76;20253;-79
2021/07/29 11:51:41;;;;;;;;;;;30.70;89.50;;;;;;1862005;76;20251;-77
2021/07/29 11:54:12;;;;;;;;;;;30.60;89.90;;;;;;1866588;76;20204;-78
2021/07/29 11:56:42;;;;;;;;;;;30.60;90.00;;;;;;1868544;76;20264;-78
2021/07/29 11:59:13;;;;;;;;;;;30.50;90.10;;;;;;1869373;76;20438;-79
2021/07/29 12:01:43;;;;;;;;;;;30.50;90.30;;;;;;1818377;78;20237;-78
2021/07/29 12:04:13;;;;;;;;;;;30.50;90.80;;;;;;1809172;78;20916;-78
2021/07/29 12:06:43;;;;;;;;;;;30.50;90.60;;;;;;1812156;77;20271;-78
2021/07/29 12:09:13;;;;;;;;;;;30.50;90.60;;;;;;1819514;77;20182;-79
2021/07/29 12:11:44;;;;;;;;;;;30.50;90.70;;;;;;1818877;77;20216;-78
2021/07/29 12:14:14;;;;;;;;;;;30.50;90.90;;;;;;1809687;78;20492;-78
2021/07/29 12:16:45;;;;;;;;;;;30.50;91.00;;;;;;1854370;76;20162;-77
2021/07/29 12:19:20;;;;;;;;;;;30.50;91.10;;;;;;1854710;76;20152;-78
2021/07/29 12:21:47;;;;;;;;;;;30.50;91.10;;;;;;1830713;77;20228;-77
2021/07/29 12:24:16;;;;;;;;;;;30.50;91.40;;;;;;1820959;77;20499;-77
2021/07/29 12:26:47;;;;;;;;;;;30.40;91.50;;;;;;1837183;77;20412;-77
2021/07/29 12:29:18;;;;;;;;;;;30.40;91.60;;;;;;1831003;77;20270;-78
2021/07/29 12:31:48;;;;;;;;;;;30.40;91.80;;;;;;1825781;77;20272;-78
2021/07/29 12:34:17;;;;;;;;;;;30.40;92.00;;;;;;1833047;77;20238;-77
2021/07/29 12:36:47;;;;;;;;;;;30.30;92.50;;;;;;1796122;79;20200;-78
2021/07/29 12:39:18;;;;;;;;;;;30.30;92.20;;;;;;1790993;79;20198;-77
2021/07/29 12:41:48;;;;;;;;;;;30.30;92.20;;;;;;1825371;77;20609;-78
2021/07/29 12:44:19;;;;;;;;;;;30.30;92.50;;;;;;1818992;77;20149;-78
2021/07/29 12:46:49;;;;;;;;;;;30.30;92.60;;;;;;1821856;77;20192;-78
2021/07/29 12:49:20;;;;;;;;;;;30.20;92.60;;;;;;1817085;77;20231;-76
2021/07/29 12:51:51;;;;;;;;;;;30.30;92.80;;;;;;1821151;77;20489;-78
2021/07/29 12:54:21;;;;;;;;;;;30.20;92.80;;;;;;1814084;78;20258;-79
2021/07/29 12:56:57;;;;;;;;;;;30.20;92.90;;;;;;1823737;77;20185;-78
2021/07/29 12:59:26;;;;;;;;;;;30.20;93.00;;;;;;1836723;77;20157;-77
2021/07/29 13:01:56;;;;;;;;;;;30.20;93.00;;;;;;1825485;77;20273;-77
2021/07/29 13:04:26;;;;;;;;;;;30.20;93.00;;;;;;1823363;77;20272;-78
2021/07/29 13:06:59;;;;;;;;;;;30.20;93.10;;;;;;1816731;77;20252;-77
2021/07/29 13:09:28;;;;;;;;;;;30.20;93.10;;;;;;1808538;77;20419;-76
2021/07/29 13:11:58;;;;;;;;;;;30.10;93.10;;;;;;1822882;77;20178;-77
2021/07/29 13:14:28;;;;;;;;;;;30.10;93.10;;;;;;1806078;78;20090;-85
2021/07/29 13:17:02;;;;;;;;;;;30.10;93.10;;;;;;1823335;75;20141;-83
2021/07/29 13:19:33;;;;;;;;;;;30.20;93.20;;;;;;1829927;73;20188;-89
2021/07/29 13:22:12;;;;;;;;;;;30.10;93.10;;;;;;1850490;75;20158;-89
2021/07/29 13:24:38;;;;;;;;;;;30.10;93.10;;;;;;1848652;74;20154;-90
2021/07/29 13:27:21;;;;;;;;;;;30.10;93.10;;;;;;1852012;76;20182;-90
2021/07/29 13:30:33;;;;;;;;;;;30.10;93.10;;;;;;1849056;75;20158;-91
2021/07/29 13:32:40;;;;;;;;;;;30.10;93.10;;;;;;1835120;76;20174;-90
2021/07/29 13:35:12;;;;;;;;;;;30.10;93.20;;;;;;1860984;76;20123;-90
2021/07/29 13:37:52;;;;;;;;;;;30.10;93.20;;;;;;1848921;76;20218;-91
2021/07/29 13:40:20;;;;;;;;;;;30.10;93.20;;;;;;1848410;76;20334;-90
2021/07/29 13:42:51;;;;;;;;;;;30.10;93.30;;;;;;1850012;76;20125;-90
2021/07/29 13:45:21;;;;;;;;;;;30.00;93.20;;;;;;1850090;76;20206;-90
2021/07/29 13:47:55;;;;;;;;;;;30.10;93.30;;;;;;1850901;75;20225;-90
2021/07/29 13:50:27;;;;;;;;;;;30.00;93.30;;;;;;1822847;76;20123;-89
2021/07/29 13:52:58;;;;;;;;;;;30.00;93.30;;;;;;1857379;76;20141;-90
2021/07/29 13:55:31;;;;;;;;;;;30.00;93.40;;;;;;1849586;76;20183;-90
2021/07/29 13:58:02;;;;;;;;;;;29.90;93.30;;;;;;1785167;78;20151;-91
2021/07/29 14:00:32;;;;;;;;;;;29.90;93.30;;;;;;1807102;78;20141;-90
2021/07/29 14:03:02;;;;;;;;;;;29.90;93.40;;;;;;1840136;76;20139;-90
2021/07/29 14:05:41;;;;;;;;;;;29.90;93.40;;;;;;1851258;76;20209;-90
2021/07/29 14:08:13;;;;;;;;;;;29.90;93.40;;;;;;1853087;76;20136;-91
2021/07/29 14:10:42;;;;;;;;;;;29.90;93.40;;;;;;1855050;76;20275;-89
2021/07/29 14:13:18;;;;;;;;;;;29.90;93.40;;;;;;1847799;76;20139;-90
2021/07/29 14:15:57;;;;;;;;;;;29.90;93.40;;;;;;1844772;76;20175;-90
2021/07/29 14:18:20;;;;;;;;;;;29.90;93.50;;;;;;1816308;78;20169;-90
2021/07/29 14:21:01;;;;;;;;;;;29.90;93.50;;;;;;1833155;76;20466;-91
2021/07/29 14:23:26;;;;;;;;;;;29.80;93.60;;;;;;1827565;77;20325;-90
2021/07/29 14:25:56;;;;;;;;;;;29.80;93.60;;;;;;1825114;77;20183;-92
2021/07/29 14:28:26;;;;;;;;;;;29.80;93.50;;;;;;1809339;78;20210;-90
2021/07/29 14:30:59;;;;;;;;;;;29.80;93.50;;;;;;1828872;76;20111;-91
2021/07/29 14:33:35;;;;;;;;;;;29.80;93.50;;;;;;1815432;77;20226;-90
2021/07/29 14:36:10;;;;;;;;;;;29.80;93.50;;;;;;1830762;78;20158;-90
2021/07/29 14:38:39;;;;;;;;;;;29.80;93.60;;;;;;1826378;77;20193;-90
2021/07/29 14:41:11;;;;;;;;;;;29.80;93.50;;;;;;1835301;77;20441;-91
2021/07/29 14:43:44;;;;;;;;;;;29.70;93.60;;;;;;1839282;76;20133;-89
2021/07/29 14:51:18;;;;;;;;;;;29.70;93.60;;;;;;1817484;78;20199;-91
2021/07/29 14:53:49;;;;;;;;;;;29.60;93.60;;;;;;1825445;77;20127;-90
2021/07/29 14:56:33;;;;;;;;;;;29.60;93.60;;;;;;1830153;77;20193;-90
2021/07/29 16:08:53;;;;;;;;;;;29.40;93.50;;;;;;1773607;80;20248;-88
2021/07/29 16:11:25;;;;;;;;;;;29.30;93.50;;;;;;1828717;78;20203;-88